Bombay, New York
Current Conditions -  °F | °C
As of 5:53 AM on Wednesday 26 Nov 2014 (Local Time) from KMSS Reporting Station
Broken Clouds Broken Clouds  
Wind Chill: -3°   Ceiling: 3800
Heat Index:   Visibility: 10mi
Dew Point: -7°   Wind: 6mph
Humidity: 59%   Direction: 320°NW
Pressure: 30.25"   Gusts: NA
Location:  44.94°N, 74.57°W
Report Text: KMSS 261053Z AUTO 32005KT 10SM BKN038 00/M07 A3025 RMK AO2 SLP248 T00001072
Loading
Personal Weather Stations






























Interactive Weather Map New forecast layout! Learn more

10-Day Weather Forecast

Advertisements
Track Severe Weather on mobile